sensor_id;sensor_type;location;lat;lon;timestamp;temperature;humidity
33460;DHT22;19795;53.160;6.612;2023-04-24T06:13:42;9.80;99.90
33460;DHT22;19795;53.160;6.612;2023-04-24T06:16:18;9.80;99.90
33460;DHT22;19795;53.160;6.612;2023-04-24T06:21:52;9.70;99.90
33460;DHT22;19795;53.160;6.612;2023-04-24T06:24:18;9.70;99.90
33460;DHT22;19795;53.160;6.612;2023-04-24T06:26:43;9.70;99.90
33460;DHT22;19795;53.160;6.612;2023-04-24T06:29:18;9.70;99.90
33460;DHT22;19795;53.160;6.612;2023-04-24T06:31:44;9.70;99.90
33460;DHT22;19795;53.160;6.612;2023-04-24T06:34:09;9.60;99.90
33460;DHT22;19795;53.160;6.612;2023-04-24T06:36:37;9.70;99.90
33460;DHT22;19795;53.160;6.612;2023-04-24T06:39:03;9.80;99.90
33460;DHT22;19795;53.160;6.612;2023-04-24T06:41:29;9.80;99.90
33460;DHT22;19795;53.160;6.612;2023-04-24T06:43:55;9.80;99.90
33460;DHT22;19795;53.160;6.612;2023-04-24T06:46:21;9.70;99.90
33460;DHT22;19795;53.160;6.612;2023-04-24T06:48:49;9.80;99.90
33460;DHT22;19795;53.160;6.612;2023-04-24T06:51:15;9.80;99.90
33460;DHT22;19795;53.160;6.612;2023-04-24T06:53:43;9.80;99.90
33460;DHT22;19795;53.160;6.612;2023-04-24T06:56:08;9.70;99.90
33460;DHT22;19795;53.160;6.612;2023-04-24T06:58:36;9.80;99.90
33460;DHT22;19795;53.160;6.612;2023-04-24T07:01:02;9.70;99.90
33460;DHT22;19795;53.160;6.612;2023-04-24T07:03:30;9.70;99.90
33460;DHT22;19795;53.160;6.612;2023-04-24T07:06:18;9.70;99.90
33460;DHT22;19795;53.160;6.612;2023-04-24T07:08:46;9.70;99.90
33460;DHT22;19795;53.160;6.612;2023-04-24T07:11:12;9.70;99.90
33460;DHT22;19795;53.160;6.612;2023-04-24T07:16:36;9.80;99.90
33460;DHT22;19795;53.160;6.612;2023-04-24T07:19:22;9.70;99.90
33460;DHT22;19795;53.160;6.612;2023-04-24T07:21:51;9.80;99.90
33460;DHT22;19795;53.160;6.612;2023-04-24T07:24:29;9.80;99.90
33460;DHT22;19795;53.160;6.612;2023-04-24T07:27:26;9.70;99.90
33460;DHT22;19795;53.160;6.612;2023-04-24T07:30:25;9.70;99.90
33460;DHT22;19795;53.160;6.612;2023-04-24T07:32:58;9.70;99.90
33460;DHT22;19795;53.160;6.612;2023-04-24T07:35:33;9.80;99.90
33460;DHT22;19795;53.160;6.612;2023-04-24T07:48:05;9.60;99.90
33460;DHT22;19795;53.160;6.612;2023-04-24T07:50:31;9.70;99.90
33460;DHT22;19795;53.160;6.612;2023-04-24T07:53:00;9.70;99.90
33460;DHT22;19795;53.160;6.612;2023-04-24T07:55:25;9.70;99.90
33460;DHT22;19795;53.160;6.612;2023-04-24T07:57:54;9.60;99.90
33460;DHT22;19795;53.160;6.612;2023-04-24T08:00:20;9.50;99.90
33460;DHT22;19795;53.160;6.612;2023-04-24T08:06:20;9.40;99.90
33460;DHT22;19795;53.160;6.612;2023-04-24T08:08:46;9.40;99.90
33460;DHT22;19795;53.160;6.612;2023-04-24T08:11:12;9.50;99.90
33460;DHT22;19795;53.160;6.612;2023-04-24T08:13:40;9.40;99.90
33460;DHT22;19795;53.160;6.612;2023-04-24T08:16:06;9.40;99.90
33460;DHT22;19795;53.160;6.612;2023-04-24T08:18:31;9.30;99.90
33460;DHT22;19795;53.160;6.612;2023-04-24T08:20:57;9.40;99.90
33460;DHT22;19795;53.160;6.612;2023-04-24T08:23:27;9.40;99.90
33460;DHT22;19795;53.160;6.612;2023-04-24T08:26:00;9.40;99.90
33460;DHT22;19795;53.160;6.612;2023-04-24T08:28:26;9.40;99.90
33460;DHT22;19795;53.160;6.612;2023-04-24T08:30:52;9.40;99.90
33460;DHT22;19795;53.160;6.612;2023-04-24T08:33:21;9.30;99.90
33460;DHT22;19795;53.160;6.612;2023-04-24T08:35:47;9.30;99.90
33460;DHT22;19795;53.160;6.612;2023-04-24T08:38:13;9.50;99.90
33460;DHT22;19795;53.160;6.612;2023-04-24T08:40:38;9.20;99.90
33460;DHT22;19795;53.160;6.612;2023-04-24T08:43:05;9.20;99.90
33460;DHT22;19795;53.160;6.612;2023-04-24T08:45:32;9.20;99.90
33460;DHT22;19795;53.160;6.612;2023-04-24T08:47:59;9.10;99.90
33460;DHT22;19795;53.160;6.612;2023-04-24T08:50:26;9.10;99.90
33460;DHT22;19795;53.160;6.612;2023-04-24T08:52:54;9.10;99.90
33460;DHT22;19795;53.160;6.612;2023-04-24T08:55:24;9.00;99.90
33460;DHT22;19795;53.160;6.612;2023-04-24T08:57:52;9.40;99.90
33460;DHT22;19795;53.160;6.612;2023-04-24T09:00:22;8.90;99.90
33460;DHT22;19795;53.160;6.612;2023-04-24T09:02:49;8.90;99.90
33460;DHT22;19795;53.160;6.612;2023-04-24T09:05:17;8.80;99.90
33460;DHT22;19795;53.160;6.612;2023-04-24T09:07:45;8.70;99.90
33460;DHT22;19795;53.160;6.612;2023-04-24T09:10:15;8.70;99.90
33460;DHT22;19795;53.160;6.612;2023-04-24T09:12:41;8.70;99.90
33460;DHT22;19795;53.160;6.612;2023-04-24T09:15:08;8.80;99.90
33460;DHT22;19795;53.160;6.612;2023-04-24T09:17:34;8.80;99.90
33460;DHT22;19795;53.160;6.612;2023-04-24T09:20:00;8.80;99.90
33460;DHT22;19795;53.160;6.612;2023-04-24T09:22:30;8.80;99.90
33460;DHT22;19795;53.160;6.612;2023-04-24T09:25:03;8.80;99.90
33460;DHT22;19795;53.160;6.612;2023-04-24T09:27:31;8.80;99.90
33460;DHT22;19795;53.160;6.612;2023-04-24T09:29:57;8.80;99.90
33460;DHT22;19795;53.160;6.612;2023-04-24T09:32:24;8.80;99.90
33460;DHT22;19795;53.160;6.612;2023-04-24T09:35:06;8.80;99.90
33460;DHT22;19795;53.160;6.612;2023-04-24T09:37:43;8.80;99.90
33460;DHT22;19795;53.160;6.612;2023-04-24T09:42:44;8.90;99.90
33460;DHT22;19795;53.160;6.612;2023-04-24T09:45:10;8.90;99.90
33460;DHT22;19795;53.160;6.612;2023-04-24T09:47:40;9.00;99.90
33460;DHT22;19795;53.160;6.612;2023-04-24T09:50:15;9.00;99.90
33460;DHT22;19795;53.160;6.612;2023-04-24T09:53:01;9.00;99.90
33460;DHT22;19795;53.160;6.612;2023-04-24T09:55:27;9.00;99.90
33460;DHT22;19795;53.160;6.612;2023-04-24T09:57:59;8.90;99.90
33460;DHT22;19795;53.160;6.612;2023-04-24T10:00:32;8.80;99.90
33460;DHT22;19795;53.160;6.612;2023-04-24T10:03:05;8.90;99.90
33460;DHT22;19795;53.160;6.612;2023-04-24T10:05:37;9.00;99.90
33460;DHT22;19795;53.160;6.612;2023-04-24T10:08:09;9.20;99.90
33460;DHT22;19795;53.160;6.612;2023-04-24T10:10:39;9.30;99.90
33460;DHT22;19795;53.160;6.612;2023-04-24T10:13:07;9.50;99.90
33460;DHT22;19795;53.160;6.612;2023-04-24T10:15:33;9.70;99.90
33460;DHT22;19795;53.160;6.612;2023-04-24T10:17:59;9.70;99.90
33460;DHT22;19795;53.160;6.612;2023-04-24T10:20:27;10.10;99.90
33460;DHT22;19795;53.160;6.612;2023-04-24T10:22:57;9.90;99.90
33460;DHT22;19795;53.160;6.612;2023-04-24T10:25:26;10.20;99.90
33460;DHT22;19795;53.160;6.612;2023-04-24T10:27:53;10.30;99.90
33460;DHT22;19795;53.160;6.612;2023-04-24T10:30:23;10.40;99.90
33460;DHT22;19795;53.160;6.612;2023-04-24T10:32:48;10.50;99.90
33460;DHT22;19795;53.160;6.612;2023-04-24T10:35:16;10.40;99.90
33460;DHT22;19795;53.160;6.612;2023-04-24T10:37:49;10.30;99.90
33460;DHT22;19795;53.160;6.612;2023-04-24T10:40:24;10.50;99.90
33460;DHT22;19795;53.160;6.612;2023-04-24T10:42:52;10.60;99.90
33460;DHT22;19795;53.160;6.612;2023-04-24T10:45:21;10.50;99.90
33460;DHT22;19795;53.160;6.612;2023-04-24T10:50:28;10.10;99.90
33460;DHT22;19795;53.160;6.612;2023-04-24T10:53:05;10.20;99.90
33460;DHT22;19795;53.160;6.612;2023-04-24T10:55:52;10.30;99.90
33460;DHT22;19795;53.160;6.612;2023-04-24T10:58:23;10.50;99.90
33460;DHT22;19795;53.160;6.612;2023-04-24T11:00:59;10.50;99.90
33460;DHT22;19795;53.160;6.612;2023-04-24T11:03:30;10.50;99.90
33460;DHT22;19795;53.160;6.612;2023-04-24T11:06:01;10.30;99.90
33460;DHT22;19795;53.160;6.612;2023-04-24T11:08:32;10.40;99.90
33460;DHT22;19795;53.160;6.612;2023-04-24T11:13:27;10.20;99.90
33460;DHT22;19795;53.160;6.612;2023-04-24T11:16:33;9.90;99.90
33460;DHT22;19795;53.160;6.612;2023-04-24T11:29:42;9.70;99.90
33460;DHT22;19795;53.160;6.612;2023-04-24T11:32:27;9.80;99.90
33460;DHT22;19795;53.160;6.612;2023-04-24T11:34:55;10.00;99.90
33460;DHT22;19795;53.160;6.612;2023-04-24T11:37:22;10.10;99.90
33460;DHT22;19795;53.160;6.612;2023-04-24T11:39:53;10.10;99.90
33460;DHT22;19795;53.160;6.612;2023-04-24T11:42:21;10.00;99.90
33460;DHT22;19795;53.160;6.612;2023-04-24T11:44:48;9.80;99.90
33460;DHT22;19795;53.160;6.612;2023-04-24T11:47:14;9.80;99.90
33460;DHT22;19795;53.160;6.612;2023-04-24T11:49:40;9.90;99.90
33460;DHT22;19795;53.160;6.612;2023-04-24T11:52:06;10.10;99.90
33460;DHT22;19795;53.160;6.612;2023-04-24T11:54:32;10.40;99.90
33460;DHT22;19795;53.160;6.612;2023-04-24T11:56:58;10.50;99.90
33460;DHT22;19795;53.160;6.612;2023-04-24T11:59:24;10.50;99.90
33460;DHT22;19795;53.160;6.612;2023-04-24T12:01:50;10.50;99.90
33460;DHT22;19795;53.160;6.612;2023-04-24T12:04:17;10.20;99.90
33460;DHT22;19795;53.160;6.612;2023-04-24T12:07:02;9.90;99.90
33460;DHT22;19795;53.160;6.612;2023-04-24T12:09:29;9.70;99.90
33460;DHT22;19795;53.160;6.612;2023-04-24T12:12:06;9.60;99.90
33460;DHT22;19795;53.160;6.612;2023-04-24T12:14:32;9.60;99.90
33460;DHT22;19795;53.160;6.612;2023-04-24T12:16:58;9.70;99.90
33460;DHT22;19795;53.160;6.612;2023-04-24T12:19:24;9.60;99.90
33460;DHT22;19795;53.160;6.612;2023-04-24T12:22:00;9.50;99.90
33460;DHT22;19795;53.160;6.612;2023-04-24T12:24:26;9.60;99.90
33460;DHT22;19795;53.160;6.612;2023-04-24T12:26:52;9.60;99.90
33460;DHT22;19795;53.160;6.612;2023-04-24T12:29:22;9.70;99.90
33460;DHT22;19795;53.160;6.612;2023-04-24T12:31:48;9.70;99.90
33460;DHT22;19795;53.160;6.612;2023-04-24T12:34:21;10.00;99.90
33460;DHT22;19795;53.160;6.612;2023-04-24T12:36:47;10.30;99.90
33460;DHT22;19795;53.160;6.612;2023-04-24T12:39:17;10.60;99.90
33460;DHT22;19795;53.160;6.612;2023-04-24T12:41:57;10.60;99.90
33460;DHT22;19795;53.160;6.612;2023-04-24T12:44:34;10.50;99.90
33460;DHT22;19795;53.160;6.612;2023-04-24T12:47:01;10.70;99.90
33460;DHT22;19795;53.160;6.612;2023-04-24T12:49:27;10.60;99.90
33460;DHT22;19795;53.160;6.612;2023-04-24T12:51:54;10.10;99.90
33460;DHT22;19795;53.160;6.612;2023-04-24T12:54:19;10.20;99.90
33460;DHT22;19795;53.160;6.612;2023-04-24T12:56:45;10.10;99.90
33460;DHT22;19795;53.160;6.612;2023-04-24T12:59:11;10.10;99.90
33460;DHT22;19795;53.160;6.612;2023-04-24T13:01:37;10.00;99.90
33460;DHT22;19795;53.160;6.612;2023-04-24T13:04:03;10.00;99.90
33460;DHT22;19795;53.160;6.612;2023-04-24T13:06:28;10.00;99.90
33460;DHT22;19795;53.160;6.612;2023-04-24T13:08:54;10.20;99.90
33460;DHT22;19795;53.160;6.612;2023-04-24T13:11:23;10.00;99.90
33460;DHT22;19795;53.160;6.612;2023-04-24T13:13:49;9.70;99.90
33460;DHT22;19795;53.160;6.612;2023-04-24T13:16:21;9.60;99.90
33460;DHT22;19795;53.160;6.612;2023-04-24T13:18:48;9.60;99.90
33460;DHT22;19795;53.160;6.612;2023-04-24T13:21:14;9.60;99.90
33460;DHT22;19795;53.160;6.612;2023-04-24T13:23:39;9.70;99.90
33460;DHT22;19795;53.160;6.612;2023-04-24T13:26:06;9.90;99.90
33460;DHT22;19795;53.160;6.612;2023-04-24T13:28:32;9.90;99.90
33460;DHT22;19795;53.160;6.612;2023-04-24T13:30:58;9.90;99.90
33460;DHT22;19795;53.160;6.612;2023-04-24T13:33:24;10.00;99.90
33460;DHT22;19795;53.160;6.612;2023-04-24T13:35:50;10.00;99.90
33460;DHT22;19795;53.160;6.612;2023-04-24T13:38:15;9.90;99.90
33460;DHT22;19795;53.160;6.612;2023-04-24T13:40:41;9.90;99.90
33460;DHT22;19795;53.160;6.612;2023-04-24T13:43:07;10.10;99.90
33460;DHT22;19795;53.160;6.612;2023-04-24T13:45:32;10.20;99.90
33460;DHT22;19795;53.160;6.612;2023-04-24T13:47:58;10.30;99.90
33460;DHT22;19795;53.160;6.612;2023-04-24T13:50:24;10.30;99.90
33460;DHT22;19795;53.160;6.612;2023-04-24T13:52:49;10.30;99.90
33460;DHT22;19795;53.160;6.612;2023-04-24T13:55:15;10.30;99.90
33460;DHT22;19795;53.160;6.612;2023-04-24T13:57:41;10.20;99.90
33460;DHT22;19795;53.160;6.612;2023-04-24T14:00:07;10.30;99.90
33460;DHT22;19795;53.160;6.612;2023-04-24T14:02:48;10.20;99.90
33460;DHT22;19795;53.160;6.612;2023-04-24T14:05:13;10.30;99.90
33460;DHT22;19795;53.160;6.612;2023-04-24T14:07:41;10.10;99.90
33460;DHT22;19795;53.160;6.612;2023-04-24T14:10:07;10.20;99.90
33460;DHT22;19795;53.160;6.612;2023-04-24T14:12:33;10.00;99.90
33460;DHT22;19795;53.160;6.612;2023-04-24T14:14:59;10.00;99.90
33460;DHT22;19795;53.160;6.612;2023-04-24T14:17:28;9.40;99.90
33460;DHT22;19795;53.160;6.612;2023-04-24T14:19:53;9.30;99.90
33460;DHT22;19795;53.160;6.612;2023-04-24T14:22:21;9.20;99.90
33460;DHT22;19795;53.160;6.612;2023-04-24T14:24:47;9.10;99.90
33460;DHT22;19795;53.160;6.612;2023-04-24T14:27:16;9.10;99.90
33460;DHT22;19795;53.160;6.612;2023-04-24T14:36:26;8.90;99.90
33460;DHT22;19795;53.160;6.612;2023-04-24T14:38:52;9.20;99.90
33460;DHT22;19795;53.160;6.612;2023-04-24T14:41:20;9.20;99.90
33460;DHT22;19795;53.160;6.612;2023-04-24T14:43:46;9.40;99.90
33460;DHT22;19795;53.160;6.612;2023-04-24T14:46:12;9.90;99.90
33460;DHT22;19795;53.160;6.612;2023-04-24T14:48:37;10.10;99.90
33460;DHT22;19795;53.160;6.612;2023-04-24T14:51:03;10.10;99.90
33460;DHT22;19795;53.160;6.612;2023-04-24T14:53:29;9.90;99.90
33460;DHT22;19795;53.160;6.612;2023-04-24T14:55:55;9.80;99.90
33460;DHT22;19795;53.160;6.612;2023-04-24T14:58:21;9.70;99.90
33460;DHT22;19795;53.160;6.612;2023-04-24T15:00:47;9.80;99.90
33460;DHT22;19795;53.160;6.612;2023-04-24T15:03:15;9.80;99.90
33460;DHT22;19795;53.160;6.612;2023-04-24T15:05:41;9.70;99.90
33460;DHT22;19795;53.160;6.612;2023-04-24T15:08:07;9.60;99.90
33460;DHT22;19795;53.160;6.612;2023-04-24T15:10:33;9.60;99.90
33460;DHT22;19795;53.160;6.612;2023-04-24T15:12:58;9.60;99.90
33460;DHT22;19795;53.160;6.612;2023-04-24T15:15:24;9.40;99.90
33460;DHT22;19795;53.160;6.612;2023-04-24T15:17:50;9.40;99.90
33460;DHT22;19795;53.160;6.612;2023-04-24T15:20:15;9.60;99.90
33460;DHT22;19795;53.160;6.612;2023-04-24T15:22:41;9.50;99.90
33460;DHT22;19795;53.160;6.612;2023-04-24T15:25:07;9.50;99.90
33460;DHT22;19795;53.160;6.612;2023-04-24T15:27:43;9.50;99.90
33460;DHT22;19795;53.160;6.612;2023-04-24T15:30:10;9.40;99.90
33460;DHT22;19795;53.160;6.612;2023-04-24T15:32:36;9.40;99.90
33460;DHT22;19795;53.160;6.612;2023-04-24T15:35:02;9.30;99.90
33460;DHT22;19795;53.160;6.612;2023-04-24T15:37:28;9.40;99.90
33460;DHT22;19795;53.160;6.612;2023-04-24T15:39:54;9.40;99.90
33460;DHT22;19795;53.160;6.612;2023-04-24T15:42:19;9.50;99.90
33460;DHT22;19795;53.160;6.612;2023-04-24T15:44:46;9.70;99.90
33460;DHT22;19795;53.160;6.612;2023-04-24T15:47:12;9.70;99.90
33460;DHT22;19795;53.160;6.612;2023-04-24T15:49:39;9.40;99.90
33460;DHT22;19795;53.160;6.612;2023-04-24T15:52:05;9.40;99.90
33460;DHT22;19795;53.160;6.612;2023-04-24T15:54:31;9.30;99.90
33460;DHT22;19795;53.160;6.612;2023-04-24T15:56:57;9.10;99.90
33460;DHT22;19795;53.160;6.612;2023-04-24T15:59:23;9.00;99.90
33460;DHT22;19795;53.160;6.612;2023-04-24T16:01:50;9.10;99.90
33460;DHT22;19795;53.160;6.612;2023-04-24T16:04:16;9.20;99.90
33460;DHT22;19795;53.160;6.612;2023-04-24T16:06:41;9.00;99.90
33460;DHT22;19795;53.160;6.612;2023-04-24T16:09:08;9.00;99.90
33460;DHT22;19795;53.160;6.612;2023-04-24T16:11:34;9.00;99.90
33460;DHT22;19795;53.160;6.612;2023-04-24T16:14:04;9.00;99.90
33460;DHT22;19795;53.160;6.612;2023-04-24T16:16:30;8.90;99.90
33460;DHT22;19795;53.160;6.612;2023-04-24T16:18:56;8.90;99.90
33460;DHT22;19795;53.160;6.612;2023-04-24T16:21:21;8.90;99.90
33460;DHT22;19795;53.160;6.612;2023-04-24T16:23:47;8.90;99.90
33460;DHT22;19795;53.160;6.612;2023-04-24T16:26:13;8.90;99.90
33460;DHT22;19795;53.160;6.612;2023-04-24T16:28:40;8.90;99.90
33460;DHT22;19795;53.160;6.612;2023-04-24T16:31:07;8.80;99.90
33460;DHT22;19795;53.160;6.612;2023-04-24T16:33:33;8.70;99.90
33460;DHT22;19795;53.160;6.612;2023-04-24T16:35:59;8.70;99.90
33460;DHT22;19795;53.160;6.612;2023-04-24T16:38:30;8.60;99.90
33460;DHT22;19795;53.160;6.612;2023-04-24T16:40:56;8.70;99.90
33460;DHT22;19795;53.160;6.612;2023-04-24T16:43:26;8.70;99.90
33460;DHT22;19795;53.160;6.612;2023-04-24T16:45:55;8.70;99.90
33460;DHT22;19795;53.160;6.612;2023-04-24T16:48:21;8.50;99.90
33460;DHT22;19795;53.160;6.612;2023-04-24T16:50:47;8.60;99.90
33460;DHT22;19795;53.160;6.612;2023-04-24T16:53:12;8.50;99.90
33460;DHT22;19795;53.160;6.612;2023-04-24T16:55:38;8.50;99.90
33460;DHT22;19795;53.160;6.612;2023-04-24T16:58:04;8.90;99.90
33460;DHT22;19795;53.160;6.612;2023-04-24T17:00:30;8.50;99.90
33460;DHT22;19795;53.160;6.612;2023-04-24T17:02:58;8.60;99.90
33460;DHT22;19795;53.160;6.612;2023-04-24T17:05:24;8.60;99.90
33460;DHT22;19795;53.160;6.612;2023-04-24T17:07:50;8.70;99.90
33460;DHT22;19795;53.160;6.612;2023-04-24T17:10:16;8.90;99.90
33460;DHT22;19795;53.160;6.612;2023-04-24T17:12:41;8.70;99.90
33460;DHT22;19795;53.160;6.612;2023-04-24T17:15:07;8.70;99.90
33460;DHT22;19795;53.160;6.612;2023-04-24T17:17:33;8.60;99.90
33460;DHT22;19795;53.160;6.612;2023-04-24T17:19:59;8.50;99.90
33460;DHT22;19795;53.160;6.612;2023-04-24T17:22:25;8.40;99.90
33460;DHT22;19795;53.160;6.612;2023-04-24T17:24:51;8.30;99.90
33460;DHT22;19795;53.160;6.612;2023-04-24T17:27:16;8.10;99.90
33460;DHT22;19795;53.160;6.612;2023-04-24T17:29:42;8.10;99.90
33460;DHT22;19795;53.160;6.612;2023-04-24T17:32:08;7.90;99.90
33460;DHT22;19795;53.160;6.612;2023-04-24T17:34:33;7.90;99.90
33460;DHT22;19795;53.160;6.612;2023-04-24T17:36:59;7.90;99.90
33460;DHT22;19795;53.160;6.612;2023-04-24T17:39:25;7.90;99.90
33460;DHT22;19795;53.160;6.612;2023-04-24T17:41:51;7.90;99.90
33460;DHT22;19795;53.160;6.612;2023-04-24T17:44:16;7.90;99.90
33460;DHT22;19795;53.160;6.612;2023-04-24T17:46:45;7.90;99.90
33460;DHT22;19795;53.160;6.612;2023-04-24T17:49:13;7.80;99.90
33460;DHT22;19795;53.160;6.612;2023-04-24T17:51:38;7.80;99.90
33460;DHT22;19795;53.160;6.612;2023-04-24T17:54:04;7.70;99.90
33460;DHT22;19795;53.160;6.612;2023-04-24T17:56:30;7.70;99.90
33460;DHT22;19795;53.160;6.612;2023-04-24T17:58:55;7.70;99.90
33460;DHT22;19795;53.160;6.612;2023-04-24T18:01:23;7.80;99.90
33460;DHT22;19795;53.160;6.612;2023-04-24T18:03:48;7.70;99.90
33460;DHT22;19795;53.160;6.612;2023-04-24T18:06:15;7.70;99.90
33460;DHT22;19795;53.160;6.612;2023-04-24T18:08:44;7.70;99.90
33460;DHT22;19795;53.160;6.612;2023-04-24T18:11:10;7.60;99.90
33460;DHT22;19795;53.160;6.612;2023-04-24T18:13:36;7.60;99.90
33460;DHT22;19795;53.160;6.612;2023-04-24T18:16:02;7.60;99.90
33460;DHT22;19795;53.160;6.612;2023-04-24T18:18:28;7.60;99.90
33460;DHT22;19795;53.160;6.612;2023-04-24T18:20:54;7.60;99.90
33460;DHT22;19795;53.160;6.612;2023-04-24T18:23:20;7.50;99.90
33460;DHT22;19795;53.160;6.612;2023-04-24T18:25:45;7.50;99.90
33460;DHT22;19795;53.160;6.612;2023-04-24T18:28:11;7.50;99.90
33460;DHT22;19795;53.160;6.612;2023-04-24T18:30:37;7.50;99.90
33460;DHT22;19795;53.160;6.612;2023-04-24T18:33:03;7.50;99.90
33460;DHT22;19795;53.160;6.612;2023-04-24T18:35:29;7.50;99.90
33460;DHT22;19795;53.160;6.612;2023-04-24T18:37:55;7.50;99.90
33460;DHT22;19795;53.160;6.612;2023-04-24T18:40:21;7.40;99.90
33460;DHT22;19795;53.160;6.612;2023-04-24T18:42:47;7.40;99.90
33460;DHT22;19795;53.160;6.612;2023-04-24T18:45:12;7.30;99.90
33460;DHT22;19795;53.160;6.612;2023-04-24T18:47:38;7.30;99.90
33460;DHT22;19795;53.160;6.612;2023-04-24T18:50:04;7.30;99.90
33460;DHT22;19795;53.160;6.612;2023-04-24T18:52:30;7.40;99.90
33460;DHT22;19795;53.160;6.612;2023-04-24T18:54:56;7.30;99.90
33460;DHT22;19795;53.160;6.612;2023-04-24T18:57:22;7.30;99.90
33460;DHT22;19795;53.160;6.612;2023-04-24T18:59:48;7.20;99.90
33460;DHT22;19795;53.160;6.612;2023-04-24T19:02:15;7.30;99.90
33460;DHT22;19795;53.160;6.612;2023-04-24T19:04:40;7.10;99.90
33460;DHT22;19795;53.160;6.612;2023-04-24T19:07:06;7.10;99.90
33460;DHT22;19795;53.160;6.612;2023-04-24T19:09:32;7.00;99.90
33460;DHT22;19795;53.160;6.612;2023-04-24T19:11:58;7.00;99.90
33460;DHT22;19795;53.160;6.612;2023-04-24T19:14:26;6.90;99.90
33460;DHT22;19795;53.160;6.612;2023-04-24T19:16:52;6.80;99.90
33460;DHT22;19795;53.160;6.612;2023-04-24T19:19:20;6.80;99.90
33460;DHT22;19795;53.160;6.612;2023-04-24T19:21:48;6.80;99.90
33460;DHT22;19795;53.160;6.612;2023-04-24T19:24:14;6.80;99.90
33460;DHT22;19795;53.160;6.612;2023-04-24T19:26:41;6.80;99.90
33460;DHT22;19795;53.160;6.612;2023-04-24T19:29:07;6.80;99.90
33460;DHT22;19795;53.160;6.612;2023-04-24T19:31:33;6.90;99.90
33460;DHT22;19795;53.160;6.612;2023-04-24T19:33:58;7.00;99.90
33460;DHT22;19795;53.160;6.612;2023-04-24T19:36:24;7.00;99.90
33460;DHT22;19795;53.160;6.612;2023-04-24T19:38:50;7.10;99.90
33460;DHT22;19795;53.160;6.612;2023-04-24T19:41:15;7.10;99.90
33460;DHT22;19795;53.160;6.612;2023-04-24T19:43:41;7.20;99.90
33460;DHT22;19795;53.160;6.612;2023-04-24T19:46:07;7.20;99.90
33460;DHT22;19795;53.160;6.612;2023-04-24T19:48:33;7.20;99.90
